createdAt,value
2022-12-03T00:02:19.801Z,6.32
2022-12-03T00:04:46.482Z,5.65
2022-12-03T00:07:13.004Z,4.82
2022-12-03T00:09:39.581Z,7.05
2022-12-03T00:12:06.345Z,6.38
2022-12-03T00:14:32.939Z,5.95
2022-12-03T00:16:59.487Z,10.25
2022-12-03T00:19:26.102Z,7.07
2022-12-03T00:21:52.627Z,6.60
2022-12-03T00:24:19.170Z,6.03
2022-12-03T00:26:45.719Z,6.53
2022-12-03T00:29:12.273Z,5.68
2022-12-03T00:31:38.836Z,5.30
2022-12-03T00:34:05.405Z,6.10
2022-12-03T00:36:31.992Z,4.75
2022-12-03T00:38:58.537Z,5.47
2022-12-03T00:41:25.126Z,4.45
2022-12-03T00:43:51.646Z,5.13
2022-12-03T00:46:21.313Z,5.95
2022-12-03T00:48:48.377Z,6.07
2022-12-03T00:51:14.923Z,6.80
2022-12-03T00:53:41.579Z,6.55
2022-12-03T00:56:08.454Z,6.07
2022-12-03T00:58:35.294Z,5.78
2022-12-03T01:01:01.964Z,5.65
2022-12-03T01:03:28.675Z,5.93
2022-12-03T01:05:55.250Z,4.60
2022-12-03T01:08:21.789Z,5.05
2022-12-03T01:10:48.345Z,5.82
2022-12-03T01:13:14.996Z,6.80
2022-12-03T01:15:41.663Z,4.50
2022-12-03T01:18:08.277Z,4.65
2022-12-03T01:20:36.417Z,6.07
2022-12-03T01:23:03.052Z,5.72
2022-12-03T01:25:29.773Z,6.32
2022-12-03T01:27:56.609Z,7.80
2022-12-03T01:30:23.231Z,6.82
2022-12-03T01:32:49.786Z,5.78
2022-12-03T01:35:16.405Z,6.75
2022-12-03T01:37:42.991Z,8.40
2022-12-03T01:40:14.495Z,7.30
2022-12-03T01:42:42.632Z,6.82
2022-12-03T01:45:22.135Z,7.03
2022-12-03T01:47:48.760Z,6.82
2022-12-03T01:50:27.291Z,9.15
2022-12-03T01:52:58.256Z,6.85
2022-12-03T01:55:26.272Z,7.13
2022-12-03T01:57:55.813Z,9.25
2022-12-03T02:00:24.402Z,8.25
2022-12-03T02:02:55.096Z,9.55
2022-12-03T02:05:26.223Z,9.43
2022-12-03T02:07:52.985Z,8.15
2022-12-03T02:10:26.265Z,7.53
2022-12-03T02:12:58.854Z,7.38
2022-12-03T02:15:26.024Z,5.88
2022-12-03T02:17:53.382Z,8.32
2022-12-03T02:20:20.115Z,8.65
2022-12-03T02:22:50.667Z,6.35
2022-12-03T02:25:23.844Z,5.40
2022-12-03T02:27:51.334Z,7.10
2022-12-03T02:30:20.989Z,6.18
2022-12-03T02:32:49.111Z,6.70
2022-12-03T02:35:22.209Z,6.13
2022-12-03T02:37:52.866Z,6.20
2022-12-03T02:40:24.690Z,6.78
2022-12-03T02:42:56.980Z,5.80
2022-12-03T02:45:36.312Z,6.18
2022-12-03T02:48:11.602Z,4.95
2022-12-03T02:50:41.894Z,8.18
2022-12-03T02:53:21.474Z,5.75
2022-12-03T02:55:49.505Z,7.35
2022-12-03T02:58:16.617Z,6.85
2022-12-03T03:00:44.756Z,7.75
2022-12-03T03:03:11.883Z,7.60
2022-12-03T03:05:40.578Z,10.02
2022-12-03T03:08:08.845Z,7.50
2022-12-03T03:10:37.911Z,8.52
2022-12-03T03:13:09.562Z,8.80
2022-12-03T03:15:37.681Z,8.63
2022-12-03T03:18:05.265Z,6.80
2022-12-03T03:20:32.224Z,9.80
2022-12-03T03:23:10.943Z,8.57
2022-12-03T03:25:39.297Z,8.32
2022-12-03T03:28:07.474Z,6.90
2022-12-03T03:30:36.038Z,8.75
2022-12-03T03:33:02.590Z,8.05
2022-12-03T03:35:29.139Z,8.02
2022-12-03T03:37:57.086Z,7.82
2022-12-03T03:40:23.829Z,9.07
2022-12-03T03:42:50.646Z,11.05
2022-12-03T03:45:18.074Z,9.18
2022-12-03T03:47:45.286Z,7.80
2022-12-03T03:50:13.114Z,9.30
2022-12-03T03:52:41.172Z,8.65
2022-12-03T03:55:10.307Z,11.18
2022-12-03T03:57:37.715Z,11.65
2022-12-03T04:00:06.904Z,9.70
2022-12-03T04:02:34.004Z,8.75
2022-12-03T04:05:00.901Z,11.50
2022-12-03T04:07:27.524Z,9.05
2022-12-03T04:09:54.128Z,8.18
2022-12-03T04:12:38.978Z,10.43
2022-12-03T04:15:06.199Z,8.90
2022-12-03T04:17:32.724Z,8.40
2022-12-03T04:19:59.245Z,6.18
2022-12-03T04:22:40.986Z,12.20
2022-12-03T04:25:28.535Z,10.77
2022-12-03T04:28:13.843Z,10.40
2022-12-03T04:30:40.482Z,8.50
2022-12-03T04:33:25.784Z,8.90
2022-12-03T04:35:52.671Z,8.20
2022-12-03T04:38:19.258Z,9.40
2022-12-03T04:41:00.967Z,9.30
2022-12-03T04:43:33.514Z,10.02
2022-12-03T04:46:01.216Z,7.32
2022-12-03T04:48:27.789Z,11.68
2022-12-03T04:50:54.355Z,9.85
2022-12-03T04:53:20.902Z,11.75
2022-12-03T04:55:47.423Z,8.10
2022-12-03T04:58:13.951Z,11.63
2022-12-03T05:00:40.476Z,11.05
2022-12-03T05:03:07.100Z,10.63
2022-12-03T05:05:33.703Z,10.07
2022-12-03T05:08:00.349Z,12.18
2022-12-03T05:10:26.974Z,10.73
2022-12-03T05:12:53.516Z,12.43
2022-12-03T05:15:20.075Z,12.45
2022-12-03T05:17:46.603Z,11.68
2022-12-03T05:20:32.221Z,8.30
2022-12-03T05:22:58.817Z,10.00
2022-12-03T05:25:25.347Z,13.38
2022-12-03T05:27:51.918Z,11.20
2022-12-03T05:30:18.590Z,11.75
2022-12-03T05:32:45.137Z,12.30
2022-12-03T05:35:11.823Z,9.73
2022-12-03T05:37:38.324Z,9.40
2022-12-03T05:40:05.639Z,10.57
2022-12-03T05:42:50.878Z,11.23
2022-12-03T05:45:18.566Z,12.02
2022-12-03T05:47:45.434Z,14.35
2022-12-03T05:50:12.206Z,11.02
2022-12-03T05:52:38.839Z,13.63
2022-12-03T05:55:06.423Z,12.05
2022-12-03T05:57:32.964Z,14.93
2022-12-03T05:59:59.574Z,11.18
2022-12-03T06:02:26.331Z,11.98
2022-12-03T06:04:53.111Z,12.10
2022-12-03T06:07:19.823Z,14.75
2022-12-03T06:09:46.392Z,10.65
2022-12-03T06:12:12.936Z,11.85
2022-12-03T06:14:39.528Z,12.00
2022-12-03T06:17:06.114Z,11.77
2022-12-03T06:19:33.323Z,10.23
2022-12-03T06:21:59.829Z,11.38
2022-12-03T06:24:26.382Z,9.38
2022-12-03T06:26:52.933Z,15.10
2022-12-03T06:29:19.429Z,17.13
2022-12-03T06:31:46.009Z,17.30
2022-12-03T06:34:12.600Z,14.48
2022-12-03T06:36:39.119Z,14.02
2022-12-03T06:39:05.713Z,16.20
2022-12-03T06:41:32.292Z,18.15
2022-12-03T06:43:58.851Z,14.10
2022-12-03T06:46:25.453Z,12.57
2022-12-03T06:48:52.092Z,15.88
2022-12-03T06:51:18.676Z,14.38
2022-12-03T06:53:45.283Z,18.85
2022-12-03T06:56:11.846Z,14.32
2022-12-03T06:58:38.391Z,13.40
2022-12-03T07:01:05.013Z,13.75
2022-12-03T07:03:31.621Z,16.00
2022-12-03T07:05:58.139Z,16.30
2022-12-03T07:08:24.699Z,15.38
2022-12-03T07:10:51.239Z,14.95
2022-12-03T07:13:17.778Z,22.50
2022-12-03T07:15:44.375Z,14.18
2022-12-03T07:18:10.951Z,16.00
2022-12-03T07:20:37.556Z,18.45
2022-12-03T07:23:04.102Z,23.05
2022-12-03T07:25:30.668Z,19.08
2022-12-03T07:27:57.313Z,15.45
2022-12-03T07:30:25.573Z,12.45
2022-12-03T07:32:52.121Z,18.40
2022-12-03T07:35:18.652Z,20.13
2022-12-03T07:37:45.246Z,14.45
2022-12-03T07:40:12.239Z,18.15
2022-12-03T07:42:38.865Z,15.98
2022-12-03T07:45:06.145Z,19.90
2022-12-03T07:47:32.697Z,20.67
2022-12-03T07:49:59.206Z,15.27
2022-12-03T07:52:25.764Z,18.90
2022-12-03T07:54:52.518Z,14.40
2022-12-03T07:57:19.311Z,11.60
2022-12-03T07:59:45.972Z,15.23
2022-12-03T08:02:15.616Z,13.82
2022-12-03T08:04:46.091Z,13.93
2022-12-03T08:07:12.602Z,19.33
2022-12-03T08:09:40.534Z,18.10
2022-12-03T08:12:17.277Z,15.38
2022-12-03T08:14:44.275Z,20.15
2022-12-03T08:17:15.120Z,15.43
2022-12-03T08:19:46.538Z,14.45
2022-12-03T08:22:15.148Z,18.67
2022-12-03T08:24:42.939Z,16.77
2022-12-03T08:27:19.414Z,15.90
2022-12-03T08:29:46.565Z,17.85
2022-12-03T08:32:13.250Z,16.77
2022-12-03T08:34:44.337Z,15.15
2022-12-03T08:37:19.996Z,15.80
2022-12-03T08:39:54.120Z,19.60
2022-12-03T08:42:43.450Z,13.70
2022-12-03T08:45:35.100Z,14.13
2022-12-03T08:48:21.168Z,21.13
2022-12-03T08:50:48.269Z,15.48
2022-12-03T08:53:42.513Z,16.45
2022-12-03T08:56:29.705Z,19.95
2022-12-03T08:59:20.265Z,19.67
2022-12-03T09:01:48.640Z,17.60
2022-12-03T09:04:36.172Z,20.58
2022-12-03T09:07:02.746Z,20.08
2022-12-03T09:09:29.525Z,22.27
2022-12-03T09:11:56.603Z,18.40
2022-12-03T09:14:23.880Z,18.25
2022-12-03T09:16:55.686Z,17.05
2022-12-03T09:19:24.857Z,19.98
2022-12-03T09:21:51.987Z,17.20
2022-12-03T09:24:18.590Z,15.00
2022-12-03T09:26:45.120Z,15.07
2022-12-03T09:29:12.777Z,18.00
2022-12-03T09:31:40.418Z,17.70
2022-12-03T09:34:07.815Z,13.50
2022-12-03T09:36:34.391Z,15.18
2022-12-03T09:39:01.032Z,19.25
2022-12-03T09:41:27.813Z,16.60
2022-12-03T09:44:17.150Z,16.92
2022-12-03T09:46:42.636Z,18.95
2022-12-03T09:49:15.788Z,20.27
2022-12-03T09:51:44.464Z,17.20
2022-12-03T09:54:21.739Z,17.83
2022-12-03T09:56:48.332Z,15.23
2022-12-03T09:59:16.105Z,15.80
2022-12-03T10:01:43.060Z,16.90
2022-12-03T10:04:10.053Z,19.15
2022-12-03T10:06:39.895Z,17.58
2022-12-03T10:09:12.421Z,15.95
2022-12-03T10:11:39.303Z,17.23
2022-12-03T10:14:06.531Z,15.68
2022-12-03T10:16:33.863Z,16.60
2022-12-03T10:19:01.091Z,17.05
2022-12-03T10:21:36.295Z,14.15
2022-12-03T10:24:19.455Z,17.52
2022-12-03T10:26:47.786Z,16.17
2022-12-03T10:29:35.603Z,15.07
2022-12-03T10:32:07.850Z,13.02
2022-12-03T10:34:40.105Z,18.73
2022-12-03T10:37:16.965Z,13.70
2022-12-03T10:40:09.390Z,13.30
2022-12-03T10:42:40.682Z,13.60
2022-12-03T10:45:18.171Z,14.50
2022-12-03T10:48:04.219Z,14.43
2022-12-03T10:50:31.550Z,16.20
2022-12-03T10:52:58.238Z,12.70
2022-12-03T10:55:25.188Z,15.48
2022-12-03T10:57:52.210Z,12.30
2022-12-03T11:00:20.114Z,17.42
2022-12-03T11:02:54.672Z,13.55
2022-12-03T11:05:28.770Z,11.45
2022-12-03T11:07:56.417Z,15.10
2022-12-03T11:10:23.683Z,13.90
2022-12-03T11:13:27.764Z,15.90
2022-12-03T11:15:55.050Z,14.45
2022-12-03T11:18:36.548Z,16.05
2022-12-03T11:21:07.739Z,17.20
2022-12-03T11:23:46.513Z,14.52
2022-12-03T11:26:19.586Z,16.88
2022-12-03T11:28:46.464Z,15.80
2022-12-03T11:31:46.625Z,15.55
2022-12-03T11:34:22.633Z,14.70
2022-12-03T11:37:10.741Z,15.40
2022-12-03T11:39:49.581Z,12.30
2022-12-03T11:42:27.958Z,15.23
2022-12-03T11:45:06.482Z,17.27
2022-12-03T11:47:40.347Z,14.43
2022-12-03T11:52:55.409Z,13.43
2022-12-03T11:55:34.744Z,14.63
2022-12-03T11:58:16.870Z,13.98
2022-12-03T12:00:51.255Z,18.55
2022-12-03T12:03:36.605Z,13.60
2022-12-03T12:06:09.748Z,14.07
2022-12-03T12:08:42.463Z,15.10
2022-12-03T12:11:27.788Z,19.35
2022-12-03T12:13:57.488Z,17.05
2022-12-03T12:16:37.574Z,20.40
2022-12-03T12:19:34.148Z,14.82
2022-12-03T12:22:30.111Z,13.43
2022-12-03T12:25:01.784Z,19.98
2022-12-03T12:27:32.808Z,19.10
2022-12-03T12:30:03.017Z,18.75
2022-12-03T12:32:32.815Z,16.50
2022-12-03T12:35:14.429Z,19.40
2022-12-03T12:37:59.708Z,19.83
2022-12-03T12:40:32.444Z,14.93
2022-12-03T12:43:05.363Z,17.13
2022-12-03T12:45:39.256Z,14.95
2022-12-03T12:48:20.967Z,22.85
2022-12-03T12:50:51.179Z,20.00
2022-12-03T12:53:30.833Z,19.23
2022-12-03T12:56:21.982Z,17.60
2022-12-03T12:58:48.944Z,19.65
2022-12-03T13:01:28.592Z,21.75
2022-12-03T13:03:55.714Z,21.98
2022-12-03T13:06:32.195Z,19.67
2022-12-03T13:09:01.208Z,23.27
2022-12-03T13:11:42.100Z,20.15
2022-12-03T13:14:31.788Z,20.35
2022-12-03T13:17:01.375Z,21.38
2022-12-03T13:19:30.769Z,20.58
2022-12-03T13:22:00.981Z,20.65
2022-12-03T13:24:32.580Z,20.33
2022-12-03T13:27:02.468Z,19.02
2022-12-03T13:29:29.223Z,26.42
2022-12-03T13:31:58.913Z,26.02
2022-12-03T13:34:28.719Z,23.70
2022-12-03T13:36:58.462Z,17.17
2022-12-03T13:39:43.534Z,16.33
2022-12-03T13:42:45.241Z,15.40
2022-12-03T13:45:15.034Z,18.73
2022-12-03T13:47:44.384Z,21.58
2022-12-03T13:50:32.124Z,23.98
2022-12-03T13:53:00.415Z,31.30
2022-12-03T13:55:29.914Z,29.02
2022-12-03T13:57:56.906Z,26.67
2022-12-03T14:00:24.387Z,30.67
2022-12-03T14:02:51.094Z,32.05
2022-12-03T14:05:17.654Z,28.23
2022-12-03T14:07:44.232Z,28.77
2022-12-03T14:10:12.269Z,29.00
2022-12-03T14:12:38.896Z,31.92
2022-12-03T14:15:06.924Z,28.58
2022-12-03T14:17:33.457Z,23.83
2022-12-03T14:20:01.431Z,22.75
2022-12-03T14:22:28.854Z,28.02
2022-12-03T14:24:56.010Z,31.52
2022-12-03T14:27:24.726Z,29.30
2022-12-03T14:29:52.102Z,31.25
2022-12-03T14:32:19.179Z,33.38
2022-12-03T14:34:45.749Z,35.65
2022-12-03T14:37:12.472Z,25.40
2022-12-03T14:39:39.336Z,27.27
2022-12-03T14:42:14.678Z,30.83
2022-12-03T14:44:49.152Z,31.17
2022-12-03T14:47:19.054Z,27.33
2022-12-03T14:49:46.374Z,28.60
2022-12-03T14:52:13.105Z,37.17
2022-12-03T14:54:42.665Z,31.73
2022-12-03T14:57:14.127Z,31.05
2022-12-03T14:59:41.892Z,30.48
2022-12-03T15:02:09.788Z,26.88
2022-12-03T15:04:36.552Z,28.35
2022-12-03T15:07:03.623Z,25.88
2022-12-03T15:09:30.311Z,28.55
2022-12-03T15:11:56.890Z,25.70
2022-12-03T15:14:23.460Z,25.95
2022-12-03T15:16:50.111Z,26.90
2022-12-03T15:19:17.150Z,26.23
2022-12-03T15:21:43.711Z,25.92
2022-12-03T15:24:10.745Z,30.60
2022-12-03T15:26:37.503Z,46.45
2022-12-03T15:29:04.093Z,40.67
2022-12-03T15:31:30.808Z,43.05
2022-12-03T15:33:57.401Z,49.58
2022-12-03T15:36:23.956Z,46.38
2022-12-03T15:38:50.492Z,46.38
2022-12-03T15:41:28.729Z,40.33
2022-12-03T15:43:58.025Z,43.53
2022-12-03T15:46:26.121Z,46.22
2022-12-03T15:48:54.646Z,50.05
2022-12-03T15:51:21.509Z,54.30
2022-12-03T15:53:48.165Z,42.97
2022-12-03T15:56:14.939Z,37.00
2022-12-03T15:58:41.780Z,33.42
2022-12-03T16:01:09.334Z,34.55
2022-12-03T16:03:36.181Z,40.35
2022-12-03T16:06:02.814Z,44.83
2022-12-03T16:08:29.602Z,30.15
2022-12-03T16:10:56.292Z,31.15
2022-12-03T16:13:22.852Z,21.30
2022-12-03T16:15:49.647Z,29.52
2022-12-03T16:18:16.198Z,33.97
2022-12-03T16:20:42.755Z,29.98
2022-12-03T16:23:09.332Z,33.63
2022-12-03T16:25:36.015Z,31.30
2022-12-03T16:28:02.578Z,24.88
2022-12-03T16:30:29.193Z,31.05
2022-12-03T16:32:55.756Z,26.45
2022-12-03T16:35:22.289Z,22.77
2022-12-03T16:37:48.908Z,24.90
2022-12-03T16:40:15.591Z,22.10
2022-12-03T16:42:42.216Z,21.15
2022-12-03T16:45:09.225Z,29.42
2022-12-03T16:47:35.882Z,26.30
2022-12-03T16:50:04.860Z,23.73
2022-12-03T16:52:31.440Z,26.50
2022-12-03T16:54:58.064Z,26.00
2022-12-03T16:57:27.662Z,21.38
2022-12-03T17:02:25.100Z,24.15
2022-12-03T17:04:51.720Z,21.88
2022-12-03T17:07:18.269Z,19.52
2022-12-03T17:09:44.820Z,21.35
2022-12-03T17:12:11.415Z,20.58
2022-12-03T17:14:37.975Z,20.77
2022-12-03T17:17:04.525Z,20.65
2022-12-03T17:19:31.098Z,18.92
2022-12-03T17:21:59.727Z,21.23
2022-12-03T17:24:26.333Z,19.67
2022-12-03T17:26:53.069Z,22.40
2022-12-03T17:29:19.594Z,21.23
2022-12-03T17:31:46.196Z,25.33
2022-12-03T17:34:12.835Z,22.70
2022-12-03T17:36:39.373Z,19.85
2022-12-03T17:39:05.899Z,19.77
2022-12-03T17:41:32.426Z,23.45
2022-12-03T17:43:58.979Z,22.23
2022-12-03T17:46:25.558Z,20.05
2022-12-03T17:48:52.128Z,21.50
2022-12-03T17:51:20.859Z,19.63
2022-12-03T17:53:47.472Z,20.85
2022-12-03T17:56:14.325Z,17.33
2022-12-03T17:58:40.855Z,22.42
2022-12-03T18:01:10.348Z,20.90
2022-12-03T18:03:37.596Z,26.38
2022-12-03T18:06:04.830Z,23.92
2022-12-03T18:08:31.407Z,21.92
2022-12-03T18:10:57.941Z,23.33
2022-12-03T18:13:24.519Z,22.23
2022-12-03T18:15:51.054Z,28.15
2022-12-03T18:18:17.708Z,35.55
2022-12-03T18:20:44.686Z,29.35
2022-12-03T18:23:12.188Z,29.33
2022-12-03T18:25:38.803Z,31.88
2022-12-03T18:28:05.744Z,31.38
2022-12-03T18:30:32.296Z,36.92
2022-12-03T18:32:58.884Z,33.05
2022-12-03T18:35:25.540Z,30.20
2022-12-03T18:37:52.130Z,36.20
2022-12-03T18:40:22.723Z,34.60
2022-12-03T18:42:49.331Z,35.78
2022-12-03T18:45:16.349Z,31.75
2022-12-03T18:47:43.234Z,30.90
2022-12-03T18:50:11.481Z,35.70
2022-12-03T18:52:38.516Z,28.80
2022-12-03T18:55:05.949Z,33.28
2022-12-03T18:57:32.486Z,30.15
2022-12-03T18:59:59.188Z,33.92
2022-12-03T19:02:54.215Z,35.28
2022-12-03T19:05:12.396Z,30.10
2022-12-03T19:07:39.045Z,27.70
2022-12-03T19:10:06.165Z,37.92
2022-12-03T19:12:33.159Z,25.52
2022-12-03T19:14:59.699Z,29.58
2022-12-03T19:17:27.363Z,27.30
2022-12-03T19:19:54.746Z,27.80
2022-12-03T19:22:21.612Z,23.70
2022-12-03T19:24:48.197Z,26.83
2022-12-03T19:27:14.780Z,28.23
2022-12-03T19:29:41.543Z,30.23
2022-12-03T19:32:09.020Z,23.80
2022-12-03T19:34:36.045Z,27.38
2022-12-03T19:37:02.550Z,26.27
2022-12-03T19:39:29.078Z,25.90
2022-12-03T19:41:55.632Z,20.70
2022-12-03T19:44:22.220Z,24.90
2022-12-03T19:46:49.550Z,23.20
2022-12-03T19:49:21.265Z,26.05
2022-12-03T19:51:48.283Z,29.25
2022-12-03T19:54:15.738Z,23.95
2022-12-03T19:56:43.050Z,32.38
2022-12-03T19:59:12.151Z,27.35
2022-12-03T20:01:40.878Z,23.15
2022-12-03T20:04:08.155Z,27.67
2022-12-03T20:06:37.662Z,27.88
2022-12-03T20:09:08.600Z,29.90
2022-12-03T20:11:35.837Z,31.88
2022-12-03T20:14:05.374Z,26.58
2022-12-03T20:16:32.238Z,24.08
2022-12-03T20:19:01.640Z,31.45
2022-12-03T20:21:31.741Z,28.80
2022-12-03T20:23:58.534Z,23.15
2022-12-03T20:26:25.785Z,26.33
2022-12-03T20:28:56.293Z,29.13
2022-12-03T20:31:25.647Z,28.55
2022-12-03T20:33:56.014Z,25.33
2022-12-03T20:36:23.334Z,23.60
2022-12-03T20:38:54.951Z,38.30
2022-12-03T20:41:21.853Z,26.95
2022-12-03T20:43:48.969Z,33.72
2022-12-03T20:46:30.186Z,37.15
2022-12-03T20:48:57.675Z,39.10
2022-12-03T20:51:27.234Z,28.80
2022-12-03T20:53:54.606Z,31.02
2022-12-03T20:56:33.516Z,20.58
2022-12-03T20:59:04.805Z,31.10
2022-12-03T21:01:31.589Z,29.23
2022-12-03T21:03:58.397Z,31.08
2022-12-03T21:06:27.851Z,29.42
2022-12-03T21:08:56.732Z,37.47
2022-12-03T21:11:26.012Z,36.67
2022-12-03T21:13:54.364Z,29.65
2022-12-03T21:16:45.598Z,26.98
2022-12-03T21:19:11.376Z,24.75
2022-12-03T21:21:37.966Z,35.40
2022-12-03T21:24:04.818Z,30.58
2022-12-03T21:26:31.377Z,35.65
2022-12-03T21:28:58.119Z,29.73
2022-12-03T21:31:26.435Z,27.90
2022-12-03T21:33:54.462Z,30.35
2022-12-03T21:36:21.543Z,32.35
2022-12-03T21:38:48.457Z,36.60
2022-12-03T21:41:15.502Z,31.90
2022-12-03T21:43:43.471Z,32.17
2022-12-03T21:47:08.426Z,35.95
2022-12-03T21:49:00.226Z,47.60
2022-12-03T21:51:26.789Z,72.93
2022-12-03T21:53:53.584Z,100.38
2022-12-03T21:56:20.454Z,44.17
2022-12-03T21:58:47.040Z,66.03
2022-12-03T22:01:19.793Z,68.10
2022-12-03T22:03:47.087Z,57.30
2022-12-03T22:06:14.273Z,90.07
2022-12-03T22:08:41.214Z,45.75
2022-12-03T22:11:11.015Z,60.47
2022-12-03T22:13:39.498Z,41.05
2022-12-03T22:16:08.156Z,44.03
2022-12-03T22:18:34.854Z,100.30
2022-12-03T22:21:06.058Z,77.97
2022-12-03T22:23:33.350Z,37.17
2022-12-03T22:26:02.100Z,48.45
2022-12-03T22:28:29.270Z,60.45
2022-12-03T22:30:55.861Z,53.53
2022-12-03T22:33:23.155Z,103.43
2022-12-03T22:36:00.808Z,41.85
2022-12-03T22:38:29.134Z,41.70
2022-12-03T22:40:56.158Z,225.18
2022-12-03T22:43:23.133Z,41.05
2022-12-03T22:45:54.754Z,29.70
2022-12-03T22:48:22.735Z,31.20
2022-12-03T22:50:51.154Z,48.08
2022-12-03T22:53:18.076Z,42.60
2022-12-03T22:55:44.738Z,49.42
2022-12-03T22:58:11.377Z,62.28
2022-12-03T23:00:40.497Z,29.50
2022-12-03T23:03:07.926Z,39.70
2022-12-03T23:05:38.994Z,64.28
2022-12-03T23:08:11.610Z,34.60
2022-12-03T23:10:42.201Z,63.75
2022-12-03T23:13:09.954Z,94.68
2022-12-03T23:15:37.020Z,83.43
2022-12-03T23:18:03.901Z,42.00
2022-12-03T23:20:30.453Z,31.92
2022-12-03T23:22:56.964Z,57.72
2022-12-03T23:25:23.483Z,59.97
2022-12-03T23:27:50.064Z,95.78
2022-12-03T23:30:16.757Z,39.92
2022-12-03T23:32:44.470Z,61.40
2022-12-03T23:35:12.553Z,46.80
2022-12-03T23:37:42.239Z,48.60
2022-12-03T23:40:09.216Z,81.07
2022-12-03T23:42:35.764Z,121.85
2022-12-03T23:45:02.328Z,71.47
2022-12-03T23:47:28.935Z,108.45
2022-12-03T23:49:55.672Z,135.52
2022-12-03T23:52:22.494Z,82.45
2022-12-03T23:54:49.033Z,135.80
2022-12-03T23:57:16.220Z,107.07
2022-12-03T23:59:43.390Z,49.92
